Alencon, France

3:14 AM CET on December 19, 2014 (GMT +0100)
Villaines la Juhel | Change Station
CLOSE
Current Station
Personal Weather Station
Location: Courcite, Pays de la Loire
Elevation: 560 ft
Nearby Weather Stations

Elev 560 ft 48.31 °N, 0.24 °W | Updated 8 seconds ago

Overcast
Overcast
51.6 °F
Feels Like 51.6 °F
N
14.8
Wind Variable Wind from WSW
Gusts 20.7 mph

Today
High -- | Low -- °F
--% Chance of Precip.
Yesterday
High -- | Low -- °F
Precip. -- in
8:47 AM 5:05 PM
Waning Crescent, 11% visible
Pressure 30.18 in
Visibility 6.2 miles
Clouds Mostly Cloudy 1300 ft
Mostly Cloudy 1800 ft
Overcast 2400 ft
Dew Point 49 °F
Humidity 91%
Rainfall 0.00 in
Snow Depth Not available.
UV 0 out of 12
Pollen Not available.
Air Quality Not available.
Flu Activity Not available.
METAR LFRM 190200Z AUTO 23010KT 190V260 9999 BKN013 BKN018 OVC024 12/10 Q1022

More Conditions Fewer Conditions

Pressure 30.18 in
Visibility 6.2 miles
Clouds Mostly Cloudy 1300 ft
Mostly Cloudy 1800 ft
Overcast 2400 ft
Dew Point 49 °F
Humidity 91%
Rainfall 0.00 in
Snow Depth Not available.
UV 0 out of 12
Pollen Not available.
Air Quality Not available.
Flu Activity Not available.
METAR LFRM 190200Z AUTO 23010KT 190V260 9999 BKN013 BKN018 OVC024 12/10 Q1022

More Conditions Fewer Conditions

10-Day Weather Forecast

Almanac

Astronomy

Dec. 19, 2014 Rise Set
Actual Time
Civil Twilight
Nautical Twilight
Astronomical Twilight
Moon
Length of Visible Light
Length of Day
Tomorrow will be .
, % of the Moon is Illuminated

Today's Extremes

Country Highs Country Lows

Community

WunderPhotos

Upload Photos

1,779,036 photos uploaded!

WunderBlogs® & News

Nearby

Air Quality

  Air Quality AQ Index Pollutant
Not available.

Snow Depth

Station Depth Elevation

Earthquake Activity

City Distance Mag. Time & Date
Minimum magnitude displayed is 2.5.

Coastal Water Temperatures

Place Temperature

Nearby Weather Stations